Time;durP1;ratioP1;P1;durP2;ratioP2;P2;SDS_P1;SDS_P2;PMS_P1;PMS_P2;Temp;Humidity;BMP_temperature;BMP_pressure;BME280_temperature;BME280_humidity;BME280_pressure;Samples;Min_cycle;Max_cycle;Signal;HPM_P1;HPM_P2
2022/06/12 00:00:12;;;;;;;14.60;3.13;;;15.70;99.90;;;;;;4986135;28;25153;-63
2022/06/12 00:02:38;;;;;;;9.60;2.80;;;15.70;99.90;;;;;;4984010;28;25057;-62
2022/06/12 00:05:04;;;;;;;19.17;3.65;;;15.70;99.90;;;;;;4986269;28;25067;-62
2022/06/12 00:07:29;;;;;;;15.63;3.72;;;15.70;99.90;;;;;;4985981;28;25058;-63
2022/06/12 00:09:55;;;;;;;17.50;3.58;;;15.70;99.90;;;;;;4987602;28;25116;-62
2022/06/12 00:12:21;;;;;;;13.98;4.57;;;15.60;99.90;;;;;;4987203;28;25121;-62
2022/06/12 00:14:47;;;;;;;12.18;2.83;;;15.70;99.90;;;;;;4988909;28;25058;-62
2022/06/12 00:17:12;;;;;;;15.40;3.28;;;15.70;99.90;;;;;;4989522;28;25061;-63
2022/06/12 00:19:40;;;;;;;16.35;3.30;;;15.70;99.90;;;;;;4987974;28;25099;-62
2022/06/12 00:22:06;;;;;;;16.42;3.80;;;15.70;99.90;;;;;;4992249;28;25077;-63
2022/06/12 00:24:32;;;;;;;19.50;3.92;;;15.70;99.90;;;;;;4990608;28;25171;-62
2022/06/12 00:26:59;;;;;;;18.17;4.57;;;15.70;99.90;;;;;;4985944;28;25116;-62
2022/06/12 00:29:29;;;;;;;18.42;3.50;;;15.70;99.90;;;;;;4984710;28;25047;-62
2022/06/12 00:32:16;;;;;;;19.23;3.60;;;15.70;99.90;;;;;;4988440;28;25065;-62
2022/06/12 00:34:48;;;;;;;18.83;3.22;;;15.60;99.90;;;;;;4989200;28;25122;-62
2022/06/12 00:37:17;;;;;;;18.50;3.45;;;15.60;99.90;;;;;;4992606;28;25100;-61
2022/06/12 00:39:44;;;;;;;14.52;3.65;;;15.60;99.90;;;;;;4988892;28;25080;-61
2022/06/12 00:42:25;;;;;;;18.88;3.90;;;15.60;99.90;;;;;;4986229;28;25092;-62
2022/06/12 00:44:53;;;;;;;14.85;3.95;;;15.60;99.90;;;;;;4985359;28;25102;-61
2022/06/12 00:47:19;;;;;;;18.50;4.00;;;15.60;99.90;;;;;;4987933;28;25055;-63
2022/06/12 00:49:52;;;;;;;21.73;3.60;;;15.50;99.90;;;;;;4996644;28;25073;-63
2022/06/12 00:52:37;;;;;;;21.70;4.28;;;15.50;99.90;;;;;;4989715;28;25065;-62
2022/06/12 00:55:14;;;;;;;19.77;3.20;;;15.40;99.90;;;;;;4980205;28;25116;-62
2022/06/12 00:57:40;;;;;;;16.83;3.47;;;15.40;99.90;;;;;;4988048;28;25051;-61
2022/06/12 01:00:13;;;;;;;16.58;3.67;;;15.50;99.90;;;;;;4982687;28;25124;-62
2022/06/12 01:02:40;;;;;;;20.67;4.00;;;15.40;99.90;;;;;;4985575;28;25052;-61
2022/06/12 01:07:57;;;;;;;21.02;3.80;;;15.40;99.90;;;;;;4986721;28;25098;-61
2022/06/12 01:10:28;;;;;;;19.13;4.20;;;15.40;99.90;;;;;;4983830;28;25070;-62
2022/06/12 01:12:59;;;;;;;17.33;3.72;;;15.40;99.90;;;;;;4985591;28;25063;-62
2022/06/12 01:15:29;;;;;;;18.88;3.35;;;15.30;99.90;;;;;;4985255;28;25095;-61
2022/06/12 01:17:56;;;;;;;20.63;4.35;;;15.30;99.90;;;;;;4980825;28;25093;-62
2022/06/12 01:20:25;;;;;;;16.90;4.35;;;15.30;99.90;;;;;;4987011;28;25072;-62
2022/06/12 01:23:27;;;;;;;18.73;4.30;;;15.30;99.90;;;;;;4988880;28;25048;-62
2022/06/12 01:26:14;;;;;;;20.00;4.07;;;15.20;99.90;;;;;;4990464;28;25083;-61
2022/06/12 01:28:55;;;;;;;17.13;3.40;;;15.10;99.90;;;;;;4986049;28;25110;-61
2022/06/12 01:31:56;;;;;;;15.40;4.22;;;15.10;99.90;;;;;;4993179;28;25060;-62
2022/06/12 01:34:42;;;;;;;17.73;4.32;;;15.10;99.90;;;;;;4992938;28;25073;-61
2022/06/12 01:37:46;;;;;;;16.08;4.60;;;15.00;99.90;;;;;;4987961;28;25058;-62
2022/06/12 01:40:38;;;;;;;16.13;3.53;;;15.10;99.90;;;;;;4985022;28;25149;-62
2022/06/12 01:43:18;;;;;;;22.65;3.92;;;15.00;99.90;;;;;;4986191;28;25064;-63
2022/06/12 01:46:13;;;;;;;16.10;4.07;;;15.00;99.90;;;;;;4986979;28;25089;-61
2022/06/12 01:49:04;;;;;;;25.42;4.95;;;14.90;99.90;;;;;;4984229;28;25070;-62
2022/06/12 01:51:38;;;;;;;21.70;4.30;;;14.90;99.90;;;;;;4995562;28;25061;-63
2022/06/12 01:54:28;;;;;;;20.55;4.65;;;14.90;99.90;;;;;;4986239;28;25079;-62
2022/06/12 01:57:19;;;;;;;16.75;3.80;;;14.90;99.90;;;;;;4985468;28;25135;-62
2022/06/12 02:00:07;;;;;;;20.23;4.30;;;15.00;99.90;;;;;;4985010;28;25110;-62
2022/06/12 02:02:39;;;;;;;13.98;4.43;;;15.00;99.90;;;;;;4984815;28;25077;-63
2022/06/12 02:05:18;;;;;;;19.73;4.28;;;14.90;99.90;;;;;;4985085;28;25071;-62
2022/06/12 02:07:50;;;;;;;15.00;3.60;;;14.90;99.90;;;;;;4982827;28;25065;-63
2022/06/12 02:10:27;;;;;;;16.88;3.65;;;15.00;99.90;;;;;;4989732;28;25100;-62
2022/06/12 02:13:17;;;;;;;14.93;3.65;;;14.90;99.90;;;;;;4987860;28;25147;-63
2022/06/12 02:16:02;;;;;;;18.83;4.05;;;14.90;99.90;;;;;;4982739;28;25154;-62
2022/06/12 02:18:36;;;;;;;25.38;3.83;;;14.80;99.90;;;;;;4986532;28;25105;-61
2022/06/12 02:21:10;;;;;;;16.05;4.18;;;14.90;99.90;;;;;;4982030;28;25065;-63
2022/06/12 02:23:51;;;;;;;18.65;4.55;;;14.80;99.90;;;;;;4985821;28;25055;-64
2022/06/12 02:26:37;;;;;;;15.77;3.75;;;14.80;99.90;;;;;;4986448;28;25078;-63
2022/06/12 02:29:09;;;;;;;16.70;3.70;;;14.80;99.90;;;;;;4990164;28;25066;-61
2022/06/12 02:31:36;;;;;;;;;;;14.70;99.90;;;;;;4985098;28;25091;-62
2022/06/12 02:34:12;;;;;;;17.35;3.55;;;14.70;99.90;;;;;;4987140;28;24104;-62
2022/06/12 02:36:45;;;;;;;20.48;4.32;;;14.60;99.90;;;;;;4986374;28;25048;-62
2022/06/12 02:39:17;;;;;;;17.38;4.22;;;14.60;99.90;;;;;;4988850;28;25098;-61
2022/06/12 02:41:49;;;;;;;19.85;3.97;;;14.60;99.90;;;;;;4988627;28;25076;-61
2022/06/12 02:44:24;;;;;;;14.88;4.00;;;14.70;99.90;;;;;;4986774;28;25065;-64
2022/06/12 02:46:57;;;;;;;17.13;4.32;;;14.60;99.90;;;;;;4988191;28;25165;-62
2022/06/12 02:49:23;;;;;;;14.15;3.95;;;14.60;99.90;;;;;;4988216;28;25071;-62
2022/06/12 02:52:09;;;;;;;13.25;4.13;;;14.60;99.90;;;;;;4988715;28;25050;-62
2022/06/12 02:54:58;;;;;;;16.10;4.13;;;14.50;99.90;;;;;;4986149;28;25102;-62
2022/06/12 02:58:00;;;;;;;14.98;3.53;;;14.50;99.90;;;;;;4990102;28;25141;-63
2022/06/12 03:00:40;;;;;;;20.60;4.20;;;14.50;99.90;;;;;;4986372;28;25093;-62
2022/06/12 03:03:28;;;;;;;22.08;5.25;;;14.40;99.90;;;;;;4986897;28;25062;-62
2022/06/12 03:05:57;;;;;;;21.95;4.65;;;14.40;99.90;;;;;;4988454;28;25101;-62
2022/06/12 03:08:28;;;;;;;18.23;3.90;;;14.30;99.90;;;;;;4988276;28;25131;-62
2022/06/12 03:11:00;;;;;;;20.67;3.60;;;14.40;99.90;;;;;;4979946;28;25052;-62
2022/06/12 03:13:27;;;;;;;;;;;14.40;99.90;;;;;;4984924;28;25064;-62
2022/06/12 03:16:19;;;;;;;19.13;4.30;;;14.40;99.90;;;;;;4986567;28;24110;-62
2022/06/12 03:18:54;;;;;;;13.10;4.00;;;14.40;99.90;;;;;;4984595;28;25146;-61
2022/06/12 03:21:46;;;;;;;16.40;4.63;;;14.40;99.90;;;;;;4985327;28;25163;-62
2022/06/12 03:24:25;;;;;;;22.10;4.85;;;14.40;99.90;;;;;;4987005;28;25068;-62
2022/06/12 03:26:51;;;;;;;18.42;4.25;;;14.40;99.90;;;;;;4986415;28;25076;-61
2022/06/12 03:29:34;;;;;;;20.73;4.25;;;14.40;99.90;;;;;;4982747;28;25084;-62
2022/06/12 03:32:24;;;;;;;23.15;4.93;;;14.40;99.90;;;;;;4982491;28;25071;-61
2022/06/12 03:35:11;;;;;;;19.58;4.40;;;14.40;99.90;;;;;;4986442;28;25066;-62
2022/06/12 03:37:57;;;;;;;20.75;4.45;;;14.40;99.90;;;;;;4985117;28;25074;-62
2022/06/12 03:40:42;;;;;;;17.75;4.40;;;14.40;99.90;;;;;;4987336;28;25064;-61
2022/06/12 03:43:32;;;;;;;28.88;5.13;;;14.40;99.90;;;;;;4982742;28;25066;-61
2022/06/12 03:46:42;;;;;;;16.35;4.00;;;14.50;99.90;;;;;;4980072;28;25088;-62
2022/06/12 03:49:15;;;;;;;25.73;5.35;;;14.60;99.90;;;;;;4933312;28;25138;-62
2022/06/12 03:51:58;;;;;;;22.88;5.40;;;14.60;99.90;;;;;;4941452;29;25093;-61
2022/06/12 03:54:28;;;;;;;22.48;4.40;;;14.50;99.90;;;;;;4966098;28;25099;-63
2022/06/12 03:57:56;;;;;;;26.38;5.28;;;14.60;99.90;;;;;;4986523;28;25068;-62
2022/06/12 04:00:15;;;;;;;18.85;4.65;;;14.60;99.90;;;;;;4976391;28;25101;-62
2022/06/12 04:02:43;;;;;;;16.17;5.60;;;14.60;99.90;;;;;;4985261;28;25057;-63
2022/06/12 04:05:14;;;;;;;23.05;4.82;;;14.60;99.90;;;;;;4995968;28;25123;-62
2022/06/12 04:07:45;;;;;;;22.67;5.97;;;14.60;99.90;;;;;;4986157;28;25068;-61
2022/06/12 04:10:17;;;;;;;23.17;5.13;;;14.60;99.90;;;;;;4984691;28;25179;-61
2022/06/12 04:12:43;;;;;;;23.73;5.40;;;14.70;99.90;;;;;;4988929;28;25072;-62
2022/06/12 04:15:35;;;;;;;23.98;6.05;;;14.70;99.90;;;;;;4982094;28;25124;-64
2022/06/12 04:18:01;;;;;;;26.15;6.00;;;14.70;99.90;;;;;;4981107;28;25071;-63
2022/06/12 04:20:54;;;;;;;29.38;5.95;;;14.80;99.90;;;;;;4983621;28;25084;-63
2022/06/12 04:23:22;;;;;;;;;;;14.80;99.90;;;;;;4985345;28;25085;-62
2022/06/12 04:25:54;;;;;;;27.30;6.00;;;14.80;99.90;;;;;;4985341;28;25077;-62
2022/06/12 04:28:34;;;;;;;21.27;5.95;;;14.90;99.90;;;;;;4984969;28;25107;-62
2022/06/12 04:31:03;;;;;;;26.83;6.18;;;14.80;99.90;;;;;;4979223;28;25154;-62
2022/06/12 04:34:05;;;;;;;23.58;5.75;;;14.80;99.90;;;;;;4981627;28;25092;-61
2022/06/12 04:36:31;;;;;;;26.27;6.53;;;14.80;99.90;;;;;;4987236;28;25072;-62
2022/06/12 04:38:57;;;;;;;22.40;5.97;;;14.70;99.90;;;;;;4986114;28;25074;-63
2022/06/12 04:41:29;;;;;;;24.90;5.97;;;14.80;99.90;;;;;;4983086;28;25058;-61
2022/06/12 04:43:54;;;;;;;28.83;5.68;;;14.80;99.90;;;;;;4985289;28;25120;-64
2022/06/12 04:46:21;;;;;;;21.77;5.55;;;14.90;99.90;;;;;;4982929;28;25089;-64
2022/06/12 04:48:49;;;;;;;26.15;6.32;;;15.00;99.90;;;;;;4986027;28;25069;-62
2022/06/12 04:51:16;;;;;;;22.00;5.70;;;15.00;99.90;;;;;;4979436;28;25078;-63
2022/06/12 04:53:44;;;;;;;23.58;6.75;;;15.00;99.90;;;;;;4996254;28;25060;-63
2022/06/12 04:56:10;;;;;;;31.83;6.35;;;15.00;99.90;;;;;;4983338;28;25066;-62
2022/06/12 04:58:38;;;;;;;22.33;6.68;;;15.00;99.90;;;;;;4975391;28;25160;-62
2022/06/12 05:01:04;;;;;;;30.58;6.65;;;15.10;99.90;;;;;;4974068;28;25163;-62
2022/06/12 05:03:30;;;;;;;26.73;6.75;;;15.40;99.90;;;;;;4978053;28;25058;-62
2022/06/12 05:05:56;;;;;;;24.63;6.65;;;15.40;99.90;;;;;;4979230;28;25128;-62
2022/06/12 05:08:22;;;;;;;27.15;6.78;;;15.50;99.90;;;;;;4985205;28;25088;-62
2022/06/12 05:10:48;;;;;;;21.30;5.68;;;15.50;99.90;;;;;;4980880;28;25186;-61
2022/06/12 05:13:14;;;;;;;27.25;5.85;;;15.60;99.90;;;;;;4983950;28;25075;-62
2022/06/12 05:15:39;;;;;;;24.52;6.32;;;15.70;99.90;;;;;;4975239;28;25063;-62
2022/06/12 05:18:07;;;;;;;30.40;6.05;;;15.70;99.90;;;;;;4978821;28;25152;-63
2022/06/12 05:20:35;;;;;;;22.08;6.57;;;15.70;99.90;;;;;;4983246;28;25057;-61
2022/06/12 05:23:01;;;;;;;27.50;6.30;;;15.80;99.90;;;;;;4981436;28;25053;-61
2022/06/12 05:25:27;;;;;;;22.45;6.70;;;15.80;99.90;;;;;;4985881;28;25079;-62
2022/06/12 05:27:53;;;;;;;24.27;6.35;;;15.90;99.90;;;;;;4983832;28;25074;-62
2022/06/12 05:30:27;;;;;;;24.55;6.30;;;15.90;99.90;;;;;;4985548;28;25058;-62
2022/06/12 05:32:54;;;;;;;26.25;6.47;;;16.00;99.90;;;;;;4984846;28;25069;-62
2022/06/12 05:35:21;;;;;;;26.88;6.72;;;15.90;99.90;;;;;;4981835;28;25054;-63
2022/06/12 05:37:48;;;;;;;25.20;6.20;;;15.90;99.90;;;;;;4985321;28;25107;-63
2022/06/12 05:40:20;;;;;;;28.52;7.13;;;15.90;99.90;;;;;;4985352;28;25067;-62
2022/06/12 05:42:46;;;;;;;27.17;6.43;;;16.00;99.90;;;;;;4987979;28;25073;-63
2022/06/12 05:45:16;;;;;;;20.50;6.25;;;16.10;99.90;;;;;;4990453;28;25082;-60
2022/06/12 05:47:47;;;;;;;21.60;6.38;;;16.30;99.90;;;;;;4989849;28;25064;-63
2022/06/12 05:50:13;;;;;;;29.45;6.50;;;16.30;99.90;;;;;;4989176;28;25114;-63
2022/06/12 05:52:38;;;;;;;30.77;7.07;;;16.30;99.90;;;;;;4988727;28;25150;-65
2022/06/12 05:55:05;;;;;;;21.77;6.45;;;16.40;99.90;;;;;;4988292;28;25077;-63
2022/06/12 05:57:30;;;;;;;19.45;5.43;;;16.40;99.90;;;;;;4992458;28;25129;-62
2022/06/12 05:59:58;;;;;;;22.67;5.35;;;16.60;99.90;;;;;;5000793;28;25149;-63
2022/06/12 06:02:23;;;;;;;23.83;6.88;;;16.80;99.90;;;;;;4990050;28;25071;-62
2022/06/12 06:04:49;;;;;;;20.88;5.97;;;16.80;99.90;;;;;;4991379;28;25124;-63
2022/06/12 06:07:15;;;;;;;26.80;6.50;;;17.00;99.90;;;;;;4986904;28;25063;-63
2022/06/12 06:09:40;;;;;;;19.52;5.85;;;17.20;99.90;;;;;;4993605;28;25087;-62
2022/06/12 06:12:06;;;;;;;17.52;4.95;;;17.30;99.90;;;;;;4985543;28;25167;-63
2022/06/12 06:14:32;;;;;;;20.05;4.78;;;17.50;99.90;;;;;;4989004;28;25125;-62
2022/06/12 06:16:57;;;;;;;22.50;5.13;;;17.50;99.90;;;;;;4991868;28;25083;-63
2022/06/12 06:19:23;;;;;;;28.05;6.78;;;17.60;99.90;;;;;;4986218;28;25074;-62
2022/06/12 06:21:49;;;;;;;18.90;5.15;;;17.80;99.90;;;;;;4986108;28;25106;-63
2022/06/12 06:24:14;;;;;;;20.88;6.47;;;17.90;99.90;;;;;;4986410;28;25096;-65
2022/06/12 06:26:41;;;;;;;20.33;5.65;;;17.90;99.90;;;;;;4990134;28;25143;-63
2022/06/12 06:29:07;;;;;;;17.77;5.10;;;18.00;99.90;;;;;;4992088;28;25095;-64
2022/06/12 06:31:33;;;;;;;17.25;4.65;;;18.10;99.90;;;;;;5001432;28;25149;-63
2022/06/12 06:34:00;;;;;;;24.23;5.55;;;18.10;99.90;;;;;;4999118;28;25063;-63
2022/06/12 06:36:25;;;;;;;20.90;5.00;;;18.20;99.90;;;;;;4988756;28;25056;-63
2022/06/12 06:38:53;;;;;;;19.88;5.75;;;18.40;99.90;;;;;;4990325;28;25066;-63
2022/06/12 06:41:19;;;;;;;22.02;5.05;;;18.50;99.90;;;;;;4987622;28;25054;-64
2022/06/12 06:46:30;;;;;;;23.25;5.10;;;18.80;99.90;;;;;;5003000;28;25128;-62
2022/06/12 06:48:55;;;;;;;17.45;4.90;;;19.10;99.90;;;;;;4990391;28;25140;-63
2022/06/12 06:51:21;;;;;;;22.83;6.07;;;19.20;99.90;;;;;;4989468;28;25093;-63
2022/06/12 06:53:47;;;;;;;20.02;5.22;;;19.10;99.90;;;;;;4987292;28;25144;-63
2022/06/12 06:56:12;;;;;;;17.63;5.03;;;19.10;99.90;;;;;;4984607;28;25071;-63
2022/06/12 06:58:38;;;;;;;18.38;4.15;;;19.20;99.90;;;;;;4987483;28;25085;-65
2022/06/12 07:01:04;;;;;;;13.52;4.05;;;19.50;99.90;;;;;;4982693;28;25115;-62
2022/06/12 07:03:30;;;;;;;15.07;3.80;;;19.70;99.90;;;;;;4986351;28;25060;-64
2022/06/12 07:05:57;;;;;;;14.55;3.95;;;19.70;99.90;;;;;;4985143;28;25062;-65
2022/06/12 07:08:25;;;;;;;15.38;3.67;;;19.60;99.90;;;;;;4987501;28;25077;-64
2022/06/12 07:10:51;;;;;;;12.45;3.15;;;19.70;99.90;;;;;;4985247;28;25077;-63
2022/06/12 07:13:16;;;;;;;12.23;3.75;;;19.60;99.90;;;;;;4987024;28;25065;-64
2022/06/12 07:15:43;;;;;;;14.75;4.05;;;19.90;99.90;;;;;;4982281;28;25054;-65
2022/06/12 07:18:09;;;;;;;15.73;3.95;;;19.70;99.90;;;;;;4987246;28;25095;-64
2022/06/12 07:20:40;;;;;;;16.35;4.25;;;19.90;99.90;;;;;;4983696;28;25083;-63
2022/06/12 07:23:07;;;;;;;13.18;3.50;;;20.10;99.90;;;;;;4987202;28;25071;-62
2022/06/12 07:25:38;;;;;;;9.57;2.63;;;19.80;99.90;;;;;;4984935;28;25137;-64
2022/06/12 07:28:04;;;;;;;11.15;3.35;;;19.80;99.90;;;;;;4992539;28;25151;-63
2022/06/12 07:30:29;;;;;;;11.23;3.00;;;20.00;99.90;;;;;;4987703;28;25115;-63
2022/06/12 07:32:55;;;;;;;11.85;3.20;;;20.10;99.90;;;;;;5006826;28;25109;-64
2022/06/12 07:35:21;;;;;;;13.02;2.72;;;20.30;99.90;;;;;;4999542;28;25177;-63
2022/06/12 07:37:47;;;;;;;10.73;2.97;;;20.50;99.90;;;;;;4991836;28;25123;-64
2022/06/12 07:40:18;;;;;;;9.60;2.88;;;20.60;99.90;;;;;;4998809;28;25058;-63
2022/06/12 07:42:44;;;;;;;7.43;2.78;;;20.60;99.90;;;;;;4987199;28;25145;-63
2022/06/12 07:45:10;;;;;;;15.43;3.30;;;20.80;99.90;;;;;;4987070;28;25063;-64
2022/06/12 07:47:36;;;;;;;12.60;3.45;;;20.90;97.80;;;;;;4987106;28;25070;-65
2022/06/12 07:50:03;;;;;;;12.90;3.13;;;20.90;98.30;;;;;;4986199;28;25084;-63
2022/06/12 07:52:30;;;;;;;14.30;2.97;;;21.00;98.40;;;;;;4986390;28;25082;-62
2022/06/12 07:54:56;;;;;;;11.77;3.55;;;21.00;96.40;;;;;;4985509;28;25058;-64
2022/06/12 07:57:21;;;;;;;8.68;3.00;;;21.10;94.90;;;;;;4985090;28;25058;-63
2022/06/12 07:59:47;;;;;;;8.00;2.80;;;21.00;94.70;;;;;;4975908;28;25092;-63
2022/06/12 08:02:13;;;;;;;12.55;2.85;;;20.90;96.50;;;;;;4980151;28;25131;-62
2022/06/12 08:04:39;;;;;;;9.18;3.28;;;20.90;93.50;;;;;;4979803;28;25144;-64
2022/06/12 08:07:05;;;;;;;10.60;2.67;;;20.90;93.00;;;;;;4986747;28;25057;-64
2022/06/12 08:09:30;;;;;;;9.05;2.30;;;21.00;94.70;;;;;;4984999;28;25100;-64
2022/06/12 08:11:56;;;;;;;10.70;2.78;;;21.20;84.60;;;;;;4985975;28;25170;-65
2022/06/12 08:14:24;;;;;;;9.63;2.45;;;21.20;81.10;;;;;;4977540;28;25200;-64
2022/06/12 08:16:50;;;;;;;8.25;2.38;;;21.10;83.40;;;;;;4979507;28;25076;-62
2022/06/12 08:22:03;;;;;;;10.13;2.50;;;20.40;92.40;;;;;;4974861;28;25065;-63
2022/06/12 08:24:29;;;;;;;7.45;2.30;;;20.60;88.80;;;;;;4980835;28;25129;-63
2022/06/12 08:26:55;;;;;;;9.23;2.80;;;20.90;82.10;;;;;;4985082;28;25074;-62
2022/06/12 08:29:20;;;;;;;16.15;3.20;;;21.00;81.20;;;;;;4984660;28;25150;-65
2022/06/12 08:31:50;;;;;;;12.48;2.95;;;21.60;77.10;;;;;;4978003;28;25064;-65
2022/06/12 08:34:38;;;;;;;12.20;3.42;;;21.70;71.60;;;;;;4973945;28;25060;-63
2022/06/12 08:37:18;;;;;;;10.20;2.83;;;21.50;72.70;;;;;;4981116;28;25133;-65
2022/06/12 08:39:44;;;;;;;11.70;3.00;;;21.10;81.30;;;;;;4986289;28;25068;-63
2022/06/12 08:42:15;;;;;;;7.13;2.67;;;21.20;83.10;;;;;;4982081;28;25105;-64
2022/06/12 08:44:50;;;;;;;12.93;2.70;;;21.20;79.10;;;;;;4981916;28;25092;-63
2022/06/12 08:47:39;;;;;;;12.65;2.90;;;21.40;79.00;;;;;;4987167;28;25089;-63
2022/06/12 08:50:26;;;;;;;9.15;3.13;;;21.50;80.30;;;;;;4983686;28;25090;-63
2022/06/12 08:53:19;;;;;;;7.38;2.95;;;21.00;84.50;;;;;;4983434;28;25054;-64
2022/06/12 08:55:52;;;;;;;7.38;2.60;;;21.40;77.10;;;;;;4980567;28;25152;-64
2022/06/12 08:58:27;;;;;;;9.02;2.45;;;21.60;70.90;;;;;;4983678;28;25089;-63
2022/06/12 09:00:54;;;;;;;9.65;2.30;;;21.40;67.70;;;;;;4982730;28;25097;-64
2022/06/12 09:03:29;;;;;;;9.85;2.58;;;21.40;61.70;;;;;;4982207;28;25066;-64
2022/06/12 09:06:14;;;;;;;10.38;2.50;;;21.50;59.70;;;;;;4983446;28;25087;-63
2022/06/12 09:09:08;;;;;;;7.07;2.15;;;21.00;66.40;;;;;;4979004;28;25047;-61
2022/06/12 09:11:39;;;;;;;8.60;2.22;;;21.50;64.80;;;;;;4982443;28;25140;-64
2022/06/12 09:14:26;;;;;;;8.30;2.60;;;22.20;61.50;;;;;;4982976;28;25073;-64
2022/06/12 09:17:12;;;;;;;4.93;2.45;;;22.50;54.30;;;;;;4979075;28;25124;-64
2022/06/12 09:20:09;;;;;;;10.10;2.28;;;22.70;53.40;;;;;;4986089;28;25063;-63
2022/06/12 09:22:59;;;;;;;11.93;2.65;;;22.30;54.00;;;;;;4983996;28;25054;-64
2022/06/12 09:25:30;;;;;;;10.65;2.65;;;22.10;61.00;;;;;;4983174;28;25068;-63
2022/06/12 09:28:01;;;;;;;10.37;3.10;;;22.30;64.80;;;;;;4985541;28;25074;-63
2022/06/12 09:30:47;;;;;;;7.30;3.00;;;22.70;62.20;;;;;;4985205;28;25066;-63
2022/06/12 09:33:16;;;;;;;11.40;2.75;;;22.40;66.40;;;;;;4981004;28;25099;-62
2022/06/12 09:35:52;;;;;;;7.47;2.50;;;22.30;60.30;;;;;;4986489;28;25110;-61
2022/06/12 09:39:01;;;;;;;5.65;2.50;;;22.20;60.10;;;;;;4984969;28;25070;-61
2022/06/12 09:41:44;;;;;;;7.30;2.35;;;22.50;59.90;;;;;;4983037;28;25131;-61
2022/06/12 09:44:27;;;;;;;8.95;3.00;;;22.20;51.90;;;;;;4988995;28;25069;-60
2022/06/12 09:47:03;;;;;;;6.78;2.05;;;22.40;59.10;;;;;;4994873;28;25054;-61
2022/06/12 09:49:53;;;;;;;7.95;2.38;;;22.10;62.50;;;;;;4984491;28;25058;-61
2022/06/12 09:52:45;;;;;;;9.80;2.60;;;22.30;58.70;;;;;;4985345;28;25071;-61
2022/06/12 09:55:22;;;;;;;11.32;2.80;;;22.20;60.60;;;;;;4964683;28;25055;-61
2022/06/12 09:58:09;;;;;;;11.25;2.53;;;22.40;60.10;;;;;;4980048;28;25136;-60
2022/06/12 10:00:43;;;;;;;8.95;2.95;;;22.00;55.00;;;;;;4984745;28;25107;-61
2022/06/12 10:03:30;;;;;;;7.07;2.45;;;22.30;60.80;;;;;;4984438;28;25070;-61
2022/06/12 10:06:04;;;;;;;7.57;1.90;;;22.30;50.80;;;;;;4979630;28;25075;-62
2022/06/12 10:08:59;;;;;;;7.68;2.20;;;22.80;51.30;;;;;;4983794;28;25155;-60
2022/06/12 10:11:39;;;;;;;9.77;2.38;;;22.70;47.50;;;;;;4984593;28;25071;-60
2022/06/12 10:14:10;;;;;;;10.35;2.55;;;22.70;49.90;;;;;;4982206;28;25055;-62
2022/06/12 10:17:06;;;;;;;9.25;2.75;;;22.90;46.30;;;;;;4985759;28;25154;-62
2022/06/12 10:19:39;;;;;;;6.97;2.30;;;22.80;42.40;;;;;;4984975;28;25067;-63
2022/06/12 10:22:24;;;;;;;5.88;2.15;;;23.10;46.80;;;;;;4985542;28;25062;-62
2022/06/12 10:24:50;;;;;;;8.57;2.25;;;22.10;47.80;;;;;;4985802;28;25061;-63
2022/06/12 10:27:18;;;;;;;9.45;2.28;;;21.80;49.20;;;;;;4985919;28;25073;-62
2022/06/12 10:29:51;;;;;;;4.75;2.00;;;22.20;51.30;;;;;;4991690;28;25100;-63
2022/06/12 10:32:23;;;;;;;11.73;2.10;;;22.00;45.60;;;;;;4990945;28;25080;-63
2022/06/12 10:34:48;;;;;;;4.63;2.22;;;21.80;49.20;;;;;;4996423;28;25102;-64
2022/06/12 10:37:27;;;;;;;6.45;2.38;;;22.10;46.60;;;;;;4986524;28;25149;-63
2022/06/12 10:40:05;;;;;;;8.30;2.30;;;22.60;43.80;;;;;;4986648;28;25126;-65
2022/06/12 10:43:00;;;;;;;5.90;2.45;;;23.30;32.90;;;;;;4986240;28;25067;-64
2022/06/12 10:45:29;;;;;;;8.48;2.45;;;23.50;22.60;;;;;;4983517;28;25065;-66
2022/06/12 10:47:58;;;;;;;7.70;2.60;;;23.60;23.60;;;;;;4995524;28;25102;-65
2022/06/12 10:50:36;;;;;;;10.27;2.58;;;22.70;35.80;;;;;;4989543;28;25062;-63
2022/06/12 10:53:08;;;;;;;8.50;2.60;;;22.60;44.20;;;;;;4985448;28;25150;-61
2022/06/12 10:55:49;;;;;;;;;;;22.80;44.90;;;;;;4988376;28;25144;-64
2022/06/12 10:58:43;;;;;;;9.13;2.58;;;22.40;52.90;;;;;;4988953;28;25077;-64
2022/06/12 11:01:31;;;;;;;7.28;2.20;;;21.70;53.10;;;;;;4987106;28;25148;-65
2022/06/12 11:04:15;;;;;;;6.88;2.03;;;22.20;51.40;;;;;;4985922;28;25073;-62
2022/06/12 11:07:05;;;;;;;7.90;2.40;;;21.80;49.80;;;;;;4986605;28;25060;-63
2022/06/12 11:09:33;;;;;;;7.50;2.40;;;22.00;51.20;;;;;;4985533;28;25088;-63
2022/06/12 11:12:28;;;;;;;7.25;2.35;;;22.60;45.10;;;;;;4988090;28;25124;-62
2022/06/12 11:15:27;;;;;;;6.85;2.25;;;23.20;30.00;;;;;;4986174;28;25074;-63
2022/06/12 11:18:18;;;;;;;6.47;2.00;;;23.00;25.40;;;;;;4987388;28;25053;-64
2022/06/12 11:20:53;;;;;;;8.70;2.00;;;22.80;27.80;;;;;;4986921;28;25076;-64
2022/06/12 11:23:21;;;;;;;7.47;2.45;;;23.20;25.20;;;;;;4985883;28;25054;-62
2022/06/12 11:26:24;;;;;;;14.40;2.25;;;23.20;24.40;;;;;;4985701;28;25134;-62
2022/06/12 11:29:02;;;;;;;5.85;1.77;;;23.20;15.40;;;;;;4987029;28;25096;-63
2022/06/12 11:31:55;;;;;;;4.70;1.92;;;23.60;12.60;;;;;;4986480;28;25077;-61
2022/06/12 11:34:29;;;;;;;11.27;2.72;;;23.90;15.40;;;;;;4982638;28;25080;-63
2022/06/12 11:37:19;;;;;;;7.18;2.05;;;24.20;14.90;;;;;;4982640;28;24850;-62
2022/06/12 11:40:06;;;;;;;6.50;2.35;;;24.00;17.10;;;;;;4984637;28;25079;-62
2022/06/12 11:42:53;;;;;;;6.82;2.08;;;23.80;13.90;;;;;;4982622;28;25073;-63
2022/06/12 11:45:37;;;;;;;6.88;2.00;;;22.90;21.30;;;;;;4980768;28;25099;-64
2022/06/12 11:48:05;;;;;;;7.15;2.13;;;23.30;17.00;;;;;;4984327;28;25146;-64
2022/06/12 11:50:39;;;;;;;9.75;2.42;;;23.30;8.50;;;;;;4985554;28;25068;-65
2022/06/12 11:53:11;;;;;;;6.55;2.13;;;23.20;12.60;;;;;;4981721;28;25104;-64
2022/06/12 11:55:44;;;;;;;7.40;2.15;;;23.40;9.00;;;;;;4983861;28;25062;-65
2022/06/12 11:58:40;;;;;;;5.47;1.92;;;23.50;10.80;;;;;;4980160;28;25155;-66
2022/06/12 12:01:31;;;;;;;8.15;2.03;;;23.80;12.50;;;;;;4988983;28;25115;-63
2022/06/12 12:03:59;;;;;;;6.00;1.73;;;23.70;4.20;;;;;;4989937;28;25146;-62
2022/06/12 12:06:39;;;;;;;4.80;1.70;;;22.90;12.20;;;;;;4991895;28;25096;-63
2022/06/12 12:09:13;;;;;;;11.20;3.35;;;22.50;21.40;;;;;;4978537;28;25071;-63
2022/06/12 12:11:53;;;;;;;6.30;2.28;;;23.20;19.40;;;;;;4983701;28;25093;-64
2022/06/12 12:14:24;;;;;;;7.80;1.67;;;23.10;13.40;;;;;;4989199;28;25057;-61
2022/06/12 12:17:09;;;;;;;5.30;2.05;;;23.30;16.30;;;;;;4986479;28;25076;-63
2022/06/12 12:19:40;;;;;;;7.20;1.63;;;22.70;17.30;;;;;;4982437;28;25070;-66
2022/06/12 12:22:12;;;;;;;5.57;1.60;;;22.40;20.00;;;;;;4985397;28;25072;-62
2022/06/12 12:25:03;;;;;;;5.72;1.48;;;22.70;18.60;;;;;;4985055;28;25149;-63
2022/06/12 12:27:37;;;;;;;5.45;1.27;;;22.80;10.60;;;;;;4964536;28;25086;-65
2022/06/12 12:30:13;;;;;;;3.65;1.30;;;22.60;6.90;;;;;;4984376;28;25061;-64
2022/06/12 12:32:39;;;;;;;2.60;1.10;;;22.70;1.00;;;;;;4985303;28;25135;-62
2022/06/12 12:35:05;;;;;;;10.38;1.58;;;22.60;1.00;;;;;;4982715;28;25050;-64
2022/06/12 12:43:19;;;;;;;5.97;1.45;;;22.60;6.30;;;;;;4980465;28;25143;-63
2022/06/12 12:45:45;;;;;;;4.40;1.48;;;22.80;14.90;;;;;;4979121;28;25069;-62
2022/06/12 12:48:13;;;;;;;4.68;1.88;;;23.30;6.30;;;;;;4996481;28;25098;-64
2022/06/12 12:50:52;;;;;;;6.30;2.38;;;23.20;6.50;;;;;;4985754;28;25065;-63
2022/06/12 12:53:29;;;;;;;8.90;2.28;;;22.60;15.00;;;;;;4980065;28;25110;-63
2022/06/12 12:56:06;;;;;;;4.07;1.83;;;22.50;16.70;;;;;;4977721;28;25059;-63
2022/06/12 12:58:35;;;;;;;8.65;2.33;;;22.70;19.50;;;;;;4998132;28;25075;-65
2022/06/12 13:01:42;;;;;;;4.68;2.03;;;22.70;10.80;;;;;;4984295;28;25067;-65
2022/06/12 13:04:21;;;;;;;6.20;1.95;;;22.40;19.10;;;;;;4982641;28;25061;-63
2022/06/12 13:07:11;;;;;;;7.20;1.90;;;22.50;15.90;;;;;;4982706;28;25054;-62
2022/06/12 13:09:37;;;;;;;4.05;1.73;;;22.20;22.30;;;;;;4981683;28;25051;-62
2022/06/12 13:12:20;;;;;;;6.15;2.22;;;22.40;23.40;;;;;;4982613;28;25073;-65
2022/06/12 13:14:58;;;;;;;9.05;2.33;;;22.30;11.60;;;;;;4985640;28;25102;-63
2022/06/12 13:17:58;;;;;;;5.47;1.95;;;22.50;20.20;;;;;;4986789;28;25104;-61
2022/06/12 13:20:36;;;;;;;5.07;1.75;;;22.30;17.30;;;;;;4976762;28;25079;-60
2022/06/12 13:23:08;;;;;;;4.78;1.90;;;22.40;24.20;;;;;;4973515;28;25080;-61
2022/06/12 13:25:41;;;;;;;5.47;1.88;;;22.60;13.00;;;;;;4987888;28;25149;-60
2022/06/12 13:28:25;;;;;;;6.07;1.90;;;22.40;16.90;;;;;;4984694;28;25078;-63
2022/06/12 13:30:52;;;;;;;4.70;1.45;;;22.20;15.70;;;;;;4981897;28;25163;-60
2022/06/12 13:33:32;;;;;;;5.95;1.63;;;22.20;13.40;;;;;;4990890;28;25082;-62